Portada
METAR-TAF:

METAR-TAF

Aeropuertos :

Seyresse

Dax, Francia

latitud: 43-41N, longitud: 001-04W, altitud: 32 m

Observación

El informe se hizo hace 2 horas y 21 minutos, a las 06:00 UTC
Viento 3 kt del este-noreste
Temperatura 3°C
Humedad 93%
Presión 1030 hPa
Visibilidad: 8000 m

METAR: LFBY 220600Z 07003KT 8000 NSC 03/02 Q1030

Hora: 09:21 (08:21 UTC)

Pronóstico

El informe se hizo hace 21 minutos, a las 08:00 UTC
Pronóstico válido del 21 a las 09 UTC al 21 a las 18 UTC
Viento 5 kt del este
Visibilidad: 4000 m
neblina
Evolucionando progresivamente
del 21 a las 10 UTC al 21 a las 12 UTC
Visibilidad 10 km o más
sin nubes por debajo de 1500 m y sin presencia de cumulonimbus.

TAF: LFBY 210800Z 2109/2118 10005KT 4000 BR NSC BECMG 2110/2112 CAVOK

Observaciones y pronósticos meteorológicos de más de 4000 aeropuertos (mensajes METAR y TAF).

Los puntos amarillos y rojos representan las estaciones disponibles.

Ponga el ratón en el punto deseado para ver el nombre de la estación.

Haga clic para ver las observaciones y los pronósticos meteorológicos.

Para cambiar el mapa : haga clic en los botones verdes con una cruz de color negro para hacer un zoom, en el botón verde con un guión para alejar o en las flechas verdes para mapas adyacentes.


METAR-TAF: